createdAt,value
2023-02-12T00:03:53.416Z,80.05
2023-02-12T00:08:57.690Z,85.05
2023-02-12T00:14:02.153Z,80.26
2023-02-12T00:19:04.242Z,84.18
2023-02-12T00:24:06.494Z,86.80
2023-02-12T00:29:10.032Z,88.39
2023-02-12T00:34:12.628Z,89.37
2023-02-12T00:39:16.303Z,90.00
2023-02-12T00:44:18.430Z,92.24
2023-02-12T00:49:20.458Z,94.66
2023-02-12T00:54:22.564Z,92.83
2023-02-12T00:59:26.359Z,92.21
2023-02-12T01:04:28.570Z,93.50
2023-02-12T01:09:30.665Z,94.35
2023-02-12T01:14:33.177Z,94.22
2023-02-12T01:19:35.237Z,94.25
2023-02-12T01:24:37.370Z,95.08
2023-02-12T01:29:39.910Z,95.81
2023-02-12T01:34:42.334Z,97.03
2023-02-12T01:39:44.724Z,96.22
2023-02-12T01:45:14.274Z,96.55
2023-02-12T01:50:21.205Z,96.66
2023-02-12T01:55:24.797Z,96.77
2023-02-12T02:00:27.051Z,100.00
2023-02-12T02:05:38.126Z,96.90
2023-02-12T02:10:40.626Z,98.24
2023-02-12T02:15:50.057Z,98.22
2023-02-12T02:21:23.106Z,97.88
2023-02-12T02:27:01.956Z,95.67
2023-02-12T02:32:27.354Z,93.73
2023-02-12T02:37:40.702Z,100.00
2023-02-12T02:42:49.280Z,96.66
2023-02-12T02:48:17.234Z,100.00
2023-02-12T02:53:28.005Z,95.76
2023-02-12T02:58:41.881Z,92.75
2023-02-12T03:04:08.949Z,94.60
2023-02-12T03:09:38.070Z,95.30
2023-02-12T03:14:49.060Z,100.00
2023-02-12T03:20:00.321Z,94.10
2023-02-12T03:25:15.141Z,96.73
2023-02-12T03:30:17.498Z,96.95
2023-02-12T03:35:34.480Z,100.00
2023-02-12T03:40:43.224Z,97.43
2023-02-12T03:45:50.410Z,89.64
2023-02-12T03:51:10.895Z,90.39
2023-02-12T03:56:25.434Z,94.88
2023-02-12T04:01:28.857Z,97.37
2023-02-12T04:06:30.931Z,91.32
2023-02-12T04:12:14.680Z,95.08
2023-02-12T04:17:48.387Z,96.98
2023-02-12T04:23:34.782Z,97.68
2023-02-12T04:29:04.219Z,100.00
2023-02-12T04:34:24.850Z,100.00
2023-02-12T04:39:32.853Z,100.00
2023-02-12T04:44:44.015Z,94.53
2023-02-12T04:49:46.100Z,92.34
2023-02-12T04:54:48.137Z,89.47
2023-02-12T04:59:50.206Z,84.80
2023-02-12T05:04:52.472Z,94.62
2023-02-12T05:09:54.966Z,90.08
2023-02-12T05:14:58.414Z,86.66
2023-02-12T05:20:00.779Z,84.47
2023-02-12T05:25:03.353Z,96.59
2023-02-12T05:30:06.364Z,85.69
2023-02-12T05:35:08.979Z,86.78
2023-02-12T05:40:11.835Z,84.68
2023-02-12T05:45:14.321Z,95.48
2023-02-12T05:50:16.758Z,87.07
2023-02-12T05:55:18.807Z,88.20
2023-02-12T06:00:21.559Z,100.00
2023-02-12T06:05:23.623Z,91.34
2023-02-12T06:10:25.816Z,90.68
2023-02-12T06:15:27.850Z,95.75
2023-02-12T06:20:30.313Z,95.98
2023-02-12T06:25:32.372Z,89.23
2023-02-12T06:30:35.350Z,89.60
2023-02-12T06:35:38.068Z,90.11
2023-02-12T06:40:40.233Z,95.08
2023-02-12T06:45:42.490Z,90.44
2023-02-12T06:50:44.819Z,87.24
2023-02-12T06:55:46.935Z,88.68
2023-02-12T07:00:48.995Z,89.23
2023-02-12T07:05:50.990Z,87.70
2023-02-12T07:10:52.983Z,86.81
2023-02-12T07:15:55.484Z,85.14
2023-02-12T07:20:58.032Z,83.88
2023-02-12T07:26:12.080Z,87.17
2023-02-12T07:31:18.748Z,83.28
2023-02-12T07:36:21.611Z,81.27
2023-02-12T07:41:30.832Z,83.26
2023-02-12T07:46:43.773Z,82.53
2023-02-12T07:51:48.139Z,84.42
2023-02-12T07:56:51.006Z,90.63
2023-02-12T08:01:54.168Z,83.71
2023-02-12T08:06:57.163Z,81.32
2023-02-12T08:11:59.678Z,82.97
2023-02-12T08:17:01.988Z,80.99
2023-02-12T08:22:04.645Z,81.20
2023-02-12T08:27:06.829Z,80.97
2023-02-12T08:32:14.146Z,80.71
2023-02-12T08:37:19.237Z,80.54
2023-02-12T08:42:21.268Z,80.76
2023-02-12T08:47:23.266Z,81.63
2023-02-12T08:52:25.409Z,85.44
2023-02-12T08:57:27.513Z,77.60
2023-02-12T09:02:29.569Z,78.61
2023-02-12T09:07:31.668Z,84.51
2023-02-12T09:12:33.647Z,85.25
2023-02-12T09:17:35.983Z,83.96
2023-02-12T09:22:38.822Z,91.81
2023-02-12T09:27:41.007Z,82.45
2023-02-12T09:32:43.407Z,78.43
2023-02-12T09:37:45.776Z,79.96
2023-02-12T09:43:06.554Z,81.38
2023-02-12T09:48:32.988Z,78.29
2023-02-12T09:53:43.170Z,79.18
2023-02-12T09:58:54.857Z,76.38
2023-02-12T10:03:57.165Z,81.89
2023-02-12T10:09:24.470Z,75.95
2023-02-12T10:14:42.682Z,76.28
2023-02-12T10:20:01.329Z,78.27
2023-02-12T10:25:29.772Z,77.31
2023-02-12T10:30:48.348Z,78.57
2023-02-12T10:35:58.368Z,77.27
2023-02-12T10:41:02.079Z,76.53
2023-02-12T10:46:04.347Z,77.43
2023-02-12T10:51:09.400Z,76.48
2023-02-12T10:56:24.907Z,77.38
2023-02-12T11:01:37.184Z,78.53
2023-02-12T11:06:40.262Z,75.77
2023-02-12T11:11:42.649Z,77.23
2023-02-12T11:16:57.598Z,78.60
2023-02-12T11:22:19.461Z,74.60
2023-02-12T11:27:28.890Z,77.59
2023-02-12T11:32:30.973Z,73.83
2023-02-12T11:37:37.259Z,75.24
2023-02-12T11:42:41.517Z,74.89
2023-02-12T11:47:46.218Z,71.90
2023-02-12T11:52:53.767Z,72.93
2023-02-12T11:58:15.197Z,71.63
2023-02-12T12:03:34.408Z,72.35
2023-02-12T12:08:45.307Z,71.90
2023-02-12T12:14:01.694Z,74.16
2023-02-12T12:19:34.043Z,73.02
2023-02-12T12:24:56.019Z,70.38
2023-02-12T12:30:06.903Z,69.70
2023-02-12T12:35:15.042Z,69.41
2023-02-12T12:40:35.229Z,68.81
2023-02-12T12:45:58.946Z,71.20
2023-02-12T12:51:38.080Z,68.31
2023-02-12T12:57:28.597Z,68.09
2023-02-12T13:02:33.882Z,63.90
2023-02-12T13:08:01.162Z,62.04
2023-02-12T13:13:38.011Z,61.18
2023-02-12T13:19:04.971Z,55.37
2023-02-12T13:24:32.399Z,55.33
2023-02-12T13:29:52.856Z,49.98
2023-02-12T13:34:57.251Z,49.92
2023-02-12T13:40:03.140Z,54.32
2023-02-12T13:45:30.937Z,59.54
2023-02-12T13:50:36.582Z,63.86
2023-02-12T13:55:51.827Z,63.77
2023-02-12T14:00:54.238Z,68.02
2023-02-12T14:06:16.980Z,68.55
2023-02-12T14:11:25.890Z,71.13
2023-02-12T14:16:31.289Z,70.58
2023-02-12T14:21:36.750Z,71.25
2023-02-12T14:26:39.853Z,70.69
2023-02-12T14:31:42.879Z,70.30
2023-02-12T14:36:49.455Z,72.00
2023-02-12T14:42:08.443Z,73.49
2023-02-12T14:47:29.645Z,71.94
2023-02-12T14:52:39.840Z,72.16
2023-02-12T14:57:43.141Z,74.68
2023-02-12T15:02:54.154Z,75.04
2023-02-12T15:08:05.467Z,75.66
2023-02-12T15:13:22.740Z,74.50
2023-02-12T15:18:30.877Z,76.02
2023-02-12T15:23:40.100Z,75.27
2023-02-12T15:28:46.198Z,76.14
2023-02-12T15:33:52.028Z,77.42
2023-02-12T15:39:01.909Z,77.47
2023-02-12T15:44:29.075Z,76.04
2023-02-12T15:49:43.287Z,76.86
2023-02-12T15:54:48.614Z,77.51
2023-02-12T16:00:01.825Z,79.32
2023-02-12T16:05:06.182Z,78.47
2023-02-12T16:10:14.283Z,77.96
2023-02-12T16:15:34.972Z,76.40
2023-02-12T16:20:37.313Z,76.79
2023-02-12T16:25:40.431Z,76.98
2023-02-12T16:30:44.775Z,77.17
2023-02-12T16:36:03.235Z,80.65
2023-02-12T16:41:20.559Z,78.37
2023-02-12T16:46:22.679Z,77.89
2023-02-12T16:51:33.055Z,78.16
2023-02-12T16:56:42.108Z,79.10
2023-02-12T17:01:59.199Z,80.01
2023-02-12T17:07:01.552Z,81.25
2023-02-12T17:12:03.948Z,82.11
2023-02-12T17:17:06.107Z,84.73
2023-02-12T17:22:19.779Z,84.54
2023-02-12T17:27:22.033Z,84.29
2023-02-12T17:32:25.473Z,85.31
2023-02-12T17:37:27.528Z,86.06
2023-02-12T17:42:29.533Z,84.50
2023-02-12T17:47:31.714Z,84.08
2023-02-12T17:52:33.756Z,83.66
2023-02-12T17:57:35.807Z,84.20
2023-02-12T18:02:38.283Z,84.44
2023-02-12T18:07:40.511Z,84.92
2023-02-12T18:12:42.601Z,83.92
2023-02-12T18:17:45.012Z,84.09
2023-02-12T18:22:47.544Z,86.97
2023-02-12T18:27:49.683Z,87.01
2023-02-12T18:32:54.488Z,85.88
2023-02-12T18:37:56.576Z,86.20
2023-02-12T18:42:58.574Z,85.32
2023-02-12T18:48:00.661Z,86.52
2023-02-12T18:53:02.698Z,85.59
2023-02-12T18:58:04.852Z,85.08
2023-02-12T19:03:07.094Z,85.57
2023-02-12T19:08:09.227Z,85.15
2023-02-12T19:13:11.380Z,85.56
2023-02-12T19:18:13.622Z,84.34
2023-02-12T19:23:16.128Z,83.01
2023-02-12T19:28:18.512Z,82.82
2023-02-12T19:33:20.626Z,82.66
2023-02-12T19:38:22.896Z,83.44
2023-02-12T19:43:24.997Z,83.46
2023-02-12T19:48:27.212Z,86.28
2023-02-12T19:53:29.399Z,83.15
2023-02-12T19:58:31.707Z,83.28
2023-02-12T20:03:33.802Z,83.57
2023-02-12T20:08:38.557Z,84.58
2023-02-12T20:13:41.636Z,84.02
2023-02-12T20:18:49.955Z,83.40
2023-02-12T20:23:52.024Z,83.60
2023-02-12T20:28:54.171Z,82.88
2023-02-12T20:34:17.507Z,82.55
2023-02-12T20:39:21.809Z,84.14
2023-02-12T20:44:24.059Z,85.02
2023-02-12T20:49:26.659Z,85.36
2023-02-12T20:54:28.928Z,86.21
2023-02-12T20:59:30.975Z,87.06
2023-02-12T21:04:33.128Z,88.60
2023-02-12T21:09:35.274Z,90.33
2023-02-12T21:14:37.580Z,90.46
2023-02-12T21:19:39.693Z,91.64
2023-02-12T21:24:41.656Z,91.89
2023-02-12T21:29:43.759Z,93.75
2023-02-12T21:34:48.613Z,93.35
2023-02-12T21:39:50.929Z,94.68
2023-02-12T21:44:53.152Z,97.16
2023-02-12T21:49:55.260Z,98.55
2023-02-12T21:54:57.347Z,100.00
2023-02-12T21:59:59.587Z,100.00
2023-02-12T22:05:01.583Z,100.00
2023-02-12T22:10:04.045Z,100.00
2023-02-12T22:15:06.611Z,100.00
2023-02-12T22:20:09.804Z,100.00
2023-02-12T22:25:11.858Z,100.00
2023-02-12T22:30:14.465Z,100.00
2023-02-12T22:35:17.263Z,100.00
2023-02-12T22:40:19.673Z,100.00
2023-02-12T22:45:21.651Z,100.00
2023-02-12T22:50:23.890Z,100.00
2023-02-12T22:55:25.918Z,100.00
2023-02-12T23:00:27.944Z,100.00
2023-02-12T23:05:31.628Z,100.00
2023-02-12T23:10:33.929Z,100.00
2023-02-12T23:15:35.890Z,100.00
2023-02-12T23:20:37.927Z,100.00
2023-02-12T23:25:39.972Z,100.00
2023-02-12T23:30:42.080Z,100.00
2023-02-12T23:35:48.516Z,100.00
2023-02-12T23:40:50.541Z,100.00
2023-02-12T23:45:52.568Z,100.00
2023-02-12T23:50:54.690Z,100.00
2023-02-12T23:55:56.752Z,100.00
